VTBDVTBU

Guest
Details From VTBD - Bangkok Don Mueang Intl
To VTBU - Rayon U-Taphao Intl
Flight Number -
Tags decoded
Created
Modified
Stats Distance 147 nm / 273 km
Max Altitude 0 ft / 0 m
Waypoints 3
Social Downloads 0
Likes 0
Share VATSIM

Download

Looking for another format? Having issues loading an existing format? Contact us
Advertisement - Login to hide

Notes

Requested: VTBD VTPH VTBP VTBU

Route

VTBD VTPH VTBU

ID Type Via Altitude Latitude Longitude Leg Dist Tot Dist Heading (true) Name
O VTBD APT - 0 ft / 0 m 13.91260˚ 100.60680˚ - 0 nm - Bangkok Don Mueang Intl
VTPH APT - 0 ft / 0 m 12.63622˚ 99.95153˚ 85 nm 85 nm 207° / 206° Hua Hin
O VTBU APT - 0 ft / 0 m 12.67995˚ 101.00503˚ 61 nm 147 nm 87° / 88° Rayon U-Taphao Intl

Altitude Profile

Advertisement - Login to hide

VTBD

Details ICAO VTBD (DMK)
Name Bangkok Don Mueang Intl
Region Thailand
Timezone Asia/Bangkok (UTC+7.0)
Stats Elevation 9 ft / 3 m (AMSL)
Location 13.912597° 100.606799°
Runways 2
Magnetic Variation 0.582° W

METAR

VTBD 131500Z 18004KT 150V210 9000 NSC 28/25 Q1011 NOSIG

Decode

TAF

TAF VTBD 131100Z 1312/1418 16008KT 9999 FEW020 BECMG 1320/1322 10005KT 5000 BR BECMG 1401/1403 9000 NSW BECMG 1408/1410 16005KT

Decode

Departure Runways

ID Width Length Bearing (true) Bearing (mag) Surface Threshold Offset Overrun Length
03L 197 ft / 60 m 12,186 ft / 3,714 m 28.55° 29.13° Asphalt 0 ft / 0 m 492 ft / 150 m
03R 148 ft / 45 m 11,520 ft / 3,511 m 28.50° 29.08° Asphalt 0 ft / 0 m 348 ft / 106 m
21L 148 ft / 45 m 11,520 ft / 3,511 m 208.50° 209.08° Asphalt 1,145 ft / 349 m 180 ft / 55 m
21R 197 ft / 60 m 12,186 ft / 3,714 m 208.55° 209.13° Asphalt 0 ft / 0 m 492 ft / 150 m

VTBU

Details ICAO VTBU (UTP)
Name Rayon U-Taphao Intl
Region Thailand
Timezone Asia/Bangkok (UTC+7.0)
Stats Elevation 59 ft / 18 m (AMSL)
Location 12.679954° 101.005033°
Runways 1
Magnetic Variation 0.519° W

METAR

VTBU 131500Z 20004KT 3000 BR FEW020 27/23 Q1011 NOSIG

Decode

TAF

TAF VTBU 131100Z 1312/1412 23006KT 3000 BR FEW020 BECMG 1318/1320 36004KT 2000 BR BECMG 1402/1404 18008KT 5000 BR

Decode

Destination Runways

ID Width Length Bearing (true) Bearing (mag) Surface Threshold Offset Overrun Length
18 197 ft / 60 m 11,627 ft / 3,544 m 184.62° 185.14° Asphalt 0 ft / 0 m 1,000 ft / 305 m
36 197 ft / 60 m 11,627 ft / 3,544 m 4.62° 5.14° Asphalt 0 ft / 0 m 1,000 ft / 305 m

Approach Navaids

Runway Type Ident Frequency Range Bearing (true) Bearing (mag) Slope Elevation
18 Localiser IBUT 111.10 MHz 18 nm / 33 km 184.62° 185.14° - 24 ft / 7 m (AMSL)
18 Glidescope IBUT 111.10 MHz 10 nm / 19 km 184.62° 185.14° 3.00° 59 ft / 18 m (AMSL)
18 DME IBUT 111.10 MHz 18 nm / 33 km - - - 59 ft / 18 m (AMSL)

Popular Alternatives